• Join FlightAware (Why Join?)
  • Login
  • US Flag 
01:15AM EDT


 

Airport Tracker/Info


-or-


 

Live Flight TrackerFlight Track Log ✈ UPS1122 ✈ 09-Aug-2013 ✈ KBDL - KALB

Flight Track Log - Related Links

Times and Time Zones

All times are in EDT time to prevent confusion due to time zone crossing. See the UPS1122 flight status page for this flight to view local times or setup timezone preferences in your user account.

Time Position Orientation Groundspeed Altitude Reporting Facility
EDT Latitude Longitude Course Direction KTS MPH feet Rate Location/Type
06:32AM 41.9333 -72.6997 272° West 158 182 1,400  Level Boston Center
06:33AM 41.9353 -72.7667 272° West 191 220 3,700 2,400 Climbing Boston Center
06:34AM 41.9869 -72.8311 317° Northwest 275 316 6,500 2,940 Climbing Boston Center
06:35AM 42.0453 -72.9069 316° Northwest 294 338 9,600 1,980 Climbing Boston Center
06:36AM 42.0844 -72.9661 312° West 300 345 10,000 240 Climbing Boston Center
06:37AM 42.1425 -73.0336 319° Northwest 294 338 10,000  Level Boston Center
06:38AM 42.2025 -73.1100 317° Northwest 296 341 10,000  Level Boston Center
06:39AM 42.2708 -73.1919 318° Northwest 346 398 10,000  Level Boston Center
06:40AM 42.3389 -73.2800 316° Northwest 346 398 10,000  Level Boston Center
06:41AM 42.4156 -73.3542 324° Northwest 342 394 10,000  Level Boston Center
06:42AM 42.5025 -73.4117 334° Northwest 351 404 10,000  Level Boston Center
06:43AM 42.5897 -73.4639 336° Northwest 350 403 10,000 -960 Level Boston Center
06:44AM 42.6683 -73.5158 334° Northwest 273 314 8,100 -2,100 Descending Boston Center
06:45AM 42.7367 -73.5594 335° Northwest 271 312 5,800 -1,680 Descending Boston Center
06:46AM 42.7986 -73.6058 331° Northwest 255 293 4,800 -900 Descending Boston Center
06:47AM 42.8522 -73.6636 322° Northwest 226 260 4,000 -780 Descending Boston Center
06:48AM 42.8828 -73.7264 304° West 201 231 3,300 -900 Descending Boston Center
06:49AM 42.8864 -73.7917 274° West 157 181 2,300 -660 Descending Boston Center
06:50AM 42.8506 -73.8108 201° Southwest 129 148 2,000 -480 Descending Boston Center
06:51AM 42.8153 -73.8100 179° South 129 148 1,400 -600 Descending Boston Center
06:52AM 42.7839 -73.8064 175° South 99 114 900 -540 Descending Boston Center